Time;durP1;ratioP1;P1;durP2;ratioP2;P2;SDS_P1;SDS_P2;PMS_P1;PMS_P2;Temp;Humidity;BMP_temperature;BMP_pressure;BME280_temperature;BME280_humidity;BME280_pressure;Samples;Min_cycle;Max_cycle;Signal;HPM_P1;HPM_P2
2021/05/16 00:02:10;;;;;;;20.50;4.25;;;;;;;9.23;100.00;99561.97;5057462;28;20035;-59
2021/05/16 00:04:37;;;;;;;23.60;5.47;;;;;;;9.28;100.00;99575.53;5058917;28;20037;-59
2021/05/16 00:07:05;;;;;;;19.17;5.10;;;;;;;9.21;100.00;99561.28;5056432;28;20079;-59
2021/05/16 00:09:32;;;;;;;16.67;3.80;;;;;;;9.09;100.00;99562.78;5058752;28;20371;-59
2021/05/16 00:12:01;;;;;;;17.90;4.18;;;;;;;9.27;100.00;99567.72;5058047;28;20052;-59
2021/05/16 00:14:29;;;;;;;17.52;6.45;;;;;;;9.32;100.00;99569.84;5057441;28;20093;-59
2021/05/16 00:16:57;;;;;;;25.02;5.20;;;;;;;9.33;100.00;99567.00;5054888;28;20278;-59
2021/05/16 00:19:25;;;;;;;16.48;5.22;;;;;;;9.49;100.00;99560.63;5062388;28;20040;-59
2021/05/16 00:21:52;;;;;;;29.02;5.60;;;;;;;9.38;100.00;99551.25;5059592;28;20040;-59
2021/05/16 00:24:20;;;;;;;23.15;5.55;;;;;;;9.44;100.00;99557.69;5057118;28;20045;-59
2021/05/16 00:26:47;;;;;;;22.27;5.47;;;;;;;9.55;100.00;99554.53;5053931;28;20045;-59
2021/05/16 00:29:15;;;;;;;19.92;5.30;;;;;;;9.61;100.00;99559.16;5057197;28;20383;-59
2021/05/16 00:31:44;;;;;;;18.77;4.15;;;;;;;9.56;100.00;99556.22;5060044;28;20110;-59
2021/05/16 00:34:11;;;;;;;29.00;6.22;;;;;;;9.68;100.00;99561.06;5053786;28;20086;-59
2021/05/16 00:36:40;;;;;;;21.75;5.50;;;;;;;9.74;100.00;99552.28;5052791;28;20472;-59
2021/05/16 00:39:07;;;;;;;19.33;5.53;;;;;;;9.45;100.00;99554.03;5058546;28;20090;-59
2021/05/16 00:41:35;;;;;;;18.27;4.35;;;;;;;9.53;100.00;99548.59;5060448;28;20036;-59
2021/05/16 00:44:03;;;;;;;21.25;5.53;;;;;;;9.58;100.00;99551.53;5059969;28;20036;-59
2021/05/16 00:46:30;;;;;;;22.17;5.00;;;;;;;9.65;100.00;99554.25;5058887;28;20380;-59
2021/05/16 00:48:58;;;;;;;29.80;6.22;;;;;;;9.08;100.00;99555.81;5059571;28;20036;-59
2021/05/16 00:51:25;;;;;;;18.08;4.10;;;;;;;9.36;100.00;99550.63;5061731;28;20052;-59
2021/05/16 00:53:53;;;;;;;27.88;5.05;;;;;;;9.32;100.00;99553.88;5057739;28;20061;-59
2021/05/16 00:56:21;;;;;;;19.48;4.80;;;;;;;9.19;100.00;99558.00;5055048;28;20723;-59
2021/05/16 00:58:48;;;;;;;19.67;4.60;;;;;;;9.11;100.00;99552.78;5055210;28;20436;-59
2021/05/16 01:01:17;;;;;;;18.92;5.50;;;;;;;8.99;100.00;99557.75;5055740;28;20041;-59
2021/05/16 01:03:45;;;;;;;18.77;4.88;;;;;;;9.24;100.00;99558.28;5061390;28;20052;-59
2021/05/16 01:06:13;;;;;;;29.88;6.30;;;;;;;9.10;100.00;99553.78;5059160;28;20040;-59
2021/05/16 01:08:40;;;;;;;20.10;4.97;;;;;;;9.05;100.00;99559.66;5057031;28;20075;-59
2021/05/16 01:11:08;;;;;;;27.77;6.07;;;;;;;9.07;100.00;99556.81;5060919;28;20044;-59
2021/05/16 01:13:36;;;;;;;28.42;5.03;;;;;;;9.02;100.00;99553.88;5056870;28;20307;-59
2021/05/16 01:16:04;;;;;;;23.48;5.40;;;;;;;9.01;100.00;99554.91;5058112;28;20345;-59
2021/05/16 01:18:32;;;;;;;24.70;5.85;;;;;;;9.11;100.00;99560.75;5053906;28;20040;-59
2021/05/16 01:20:59;;;;;;;21.88;4.43;;;;;;;9.00;100.00;99555.91;5055911;28;20367;-59
2021/05/16 01:23:31;;;;;;;16.92;5.90;;;;;;;8.71;100.00;99547.72;5056731;28;20047;-59
2021/05/16 01:25:58;;;;;;;27.50;5.57;;;;;;;8.80;100.00;99559.09;5059022;28;20048;-59
2021/05/16 01:28:26;;;;;;;28.00;4.93;;;;;;;8.76;100.00;99557.78;5058419;28;20217;-59
2021/05/16 01:30:53;;;;;;;24.88;5.70;;;;;;;8.80;100.00;99556.44;5060258;28;20052;-59
2021/05/16 01:33:21;;;;;;;25.23;5.18;;;;;;;8.79;100.00;99552.13;5060084;28;20443;-59
2021/05/16 01:35:49;;;;;;;23.90;4.97;;;;;;;8.58;100.00;99548.34;5058872;28;20049;-59
2021/05/16 01:38:16;;;;;;;25.10;5.13;;;;;;;8.46;100.00;99544.44;5060237;28;20052;-59
2021/05/16 01:40:45;;;;;;;22.48;6.57;;;;;;;8.66;100.00;99544.78;5061149;28;20302;-59
2021/05/16 01:43:14;;;;;;;24.83;5.55;;;;;;;8.58;100.00;99550.19;5057976;28;20171;-59
2021/05/16 01:45:42;;;;;;;22.33;6.07;;;;;;;8.68;100.00;99547.25;5060180;28;20229;-59
2021/05/16 01:48:10;;;;;;;20.88;5.47;;;;;;;8.72;100.00;99548.56;5062765;28;20337;-59
2021/05/16 01:50:39;;;;;;;28.83;5.18;;;;;;;8.82;100.00;99541.13;5060793;28;20048;-59
2021/05/16 01:53:07;;;;;;;23.02;5.78;;;;;;;8.71;100.00;99545.03;5065120;28;20060;-59
2021/05/16 01:55:36;;;;;;;15.82;4.72;;;;;;;8.85;100.00;99542.59;5059267;28;20068;-59
2021/05/16 01:58:05;;;;;;;20.25;7.70;;;;;;;9.00;100.00;99545.25;5059963;28;20230;-59
2021/05/16 02:00:39;;;;;;;26.13;5.25;;;;;;;8.91;100.00;99547.19;5062005;28;20060;-59
2021/05/16 02:03:06;;;;;;;14.75;4.07;;;;;;;8.81;100.00;99536.78;5062118;28;20056;-59
2021/05/16 02:05:34;;;;;;;21.05;4.68;;;;;;;8.77;100.00;99535.50;5062938;28;20356;-59
2021/05/16 02:08:03;;;;;;;26.38;6.28;;;;;;;8.88;100.00;99540.38;5057408;28;20041;-59
2021/05/16 02:10:30;;;;;;;29.13;6.93;;;;;;;8.68;100.00;99540.09;5061123;28;20048;-59
2021/05/16 02:12:57;;;;;;;23.70;4.75;;;;;;;8.58;100.00;99542.19;5062224;28;20044;-59
2021/05/16 02:15:26;;;;;;;23.50;8.27;;;;;;;8.70;100.00;99539.91;5062587;28;20041;-59
2021/05/16 02:17:55;;;;;;;24.95;5.10;;;;;;;8.67;100.00;99545.59;5058125;28;20029;-59
2021/05/16 02:20:23;;;;;;;21.27;4.93;;;;;;;8.68;100.00;99544.59;5061540;28;20090;-59
2021/05/16 02:22:50;;;;;;;23.42;4.93;;;;;;;8.63;100.00;99534.47;5062137;28;20049;-59
2021/05/16 02:25:18;;;;;;;17.80;5.45;;;;;;;8.57;100.00;99540.53;5063790;28;20366;-59
2021/05/16 02:27:47;;;;;;;22.75;4.80;;;;;;;8.46;100.00;99544.44;5057892;28;20070;-59
2021/05/16 02:30:16;;;;;;;16.30;4.70;;;;;;;8.48;100.00;99541.59;5058003;28;20132;-59
2021/05/16 02:32:46;;;;;;;20.38;4.65;;;;;;;8.46;100.00;99533.00;5054734;28;20033;-59
2021/05/16 02:35:14;;;;;;;18.80;4.35;;;;;;;8.30;100.00;99537.41;5060338;28;20041;-59
2021/05/16 02:37:41;;;;;;;18.27;4.97;;;;;;;8.31;100.00;99543.56;5057427;28;20328;-59
2021/05/16 02:40:10;;;;;;;30.60;6.63;;;;;;;8.27;100.00;99530.63;5059453;28;20052;-59
2021/05/16 02:42:38;;;;;;;21.23;6.35;;;;;;;8.34;100.00;99537.91;5058464;28;20048;-59
2021/05/16 02:45:07;;;;;;;15.80;4.28;;;;;;;8.40;100.00;99534.50;5056909;28;20065;-59
2021/05/16 02:47:34;;;;;;;21.95;4.22;;;;;;;8.36;100.00;99542.00;5061502;28;20433;-59
2021/05/16 02:50:04;;;;;;;23.90;4.72;;;;;;;8.21;100.00;99541.97;5061067;28;20056;-59
2021/05/16 02:52:31;;;;;;;23.63;4.95;;;;;;;8.40;100.00;99540.66;5059187;28;20043;-59
2021/05/16 02:54:59;;;;;;;15.18;3.97;;;;;;;8.39;100.00;99535.50;5063862;28;20045;-59
2021/05/16 02:57:26;;;;;;;16.88;4.38;;;;;;;8.36;100.00;99538.53;5058220;28;20052;-59
2021/05/16 02:59:53;;;;;;;29.40;7.07;;;;;;;8.42;100.00;99535.13;5061668;28;20048;-59
2021/05/16 03:02:21;;;;;;;24.17;6.03;;;;;;;8.43;100.00;99529.66;5060455;28;20044;-59
2021/05/16 03:04:48;;;;;;;19.80;4.95;;;;;;;8.42;100.00;99535.13;5061995;28;20094;-59
2021/05/16 03:07:17;;;;;;;34.17;5.80;;;;;;;8.36;100.00;99534.03;5058258;28;20102;-59
2021/05/16 03:09:44;;;;;;;19.17;5.55;;;;;;;8.36;100.00;99534.03;5056917;28;20075;-59
2021/05/16 03:12:13;;;;;;;22.92;5.97;;;;;;;8.31;100.00;99527.59;5060651;28;20063;-59
2021/05/16 03:14:40;;;;;;;28.88;4.80;;;;;;;8.37;100.00;99543.66;5054679;28;20036;-59
2021/05/16 03:17:08;;;;;;;21.33;5.35;;;;;;;8.31;100.00;99540.88;5056826;28;20044;-59
2021/05/16 03:19:35;;;;;;;25.50;4.68;;;;;;;8.19;100.00;99535.19;5060816;28;20048;-59
2021/05/16 03:22:03;;;;;;;19.42;6.43;;;;;;;8.28;100.00;99542.09;5057019;28;20065;-59
2021/05/16 03:24:31;;;;;;;20.60;5.18;;;;;;;8.12;100.00;99543.03;5058740;28;20097;-59
2021/05/16 03:26:59;;;;;;;23.92;5.88;;;;;;;8.15;100.00;99542.72;5054522;28;20045;-59
2021/05/16 03:29:26;;;;;;;20.23;6.50;;;;;;;8.23;100.00;99541.81;5056361;28;20056;-59
2021/05/16 03:31:54;;;;;;;26.98;6.25;;;;;;;8.06;100.00;99544.56;5060015;28;20037;-59
2021/05/16 03:34:21;;;;;;;23.38;5.55;;;;;;;8.16;100.00;99543.53;5059145;28;20127;-59
2021/05/16 03:36:49;;;;;;;22.63;5.70;;;;;;;8.09;100.00;99538.94;5054860;28;20056;-59
2021/05/16 03:39:16;;;;;;;12.93;4.90;;;;;;;8.12;100.00;99542.22;5058765;28;20033;-59
2021/05/16 03:41:44;;;;;;;21.38;5.95;;;;;;;7.97;100.00;99539.50;5056151;28;20386;-59
2021/05/16 03:44:12;;;;;;;18.13;5.25;;;;;;;8.10;100.00;99542.41;5058701;28;20067;-59
2021/05/16 03:46:39;;;;;;;20.02;5.72;;;;;;;8.04;100.00;99535.97;5059874;28;20040;-59
2021/05/16 03:49:07;;;;;;;17.55;6.75;;;;;;;8.16;100.00;99539.03;5055034;28;20055;-59
2021/05/16 03:51:34;;;;;;;25.98;5.97;;;;;;;8.10;100.00;99545.88;5055308;28;20037;-58
2021/05/16 03:54:01;;;;;;;21.50;5.63;;;;;;;8.08;100.00;99537.25;5060739;28;20380;-58
2021/05/16 03:56:29;;;;;;;22.25;6.60;;;;;;;8.12;100.00;99543.03;5058779;28;20428;-59
2021/05/16 03:58:57;;;;;;;18.90;6.90;;;;;;;8.25;100.00;99550.41;5056705;28;20380;-59
2021/05/16 04:01:26;;;;;;;22.80;5.75;;;;;;;8.23;100.00;99550.59;5061224;28;20394;-59
2021/05/16 04:03:53;;;;;;;23.40;6.65;;;;;;;8.35;100.00;99542.19;5061540;28;20064;-59
2021/05/16 04:06:21;;;;;;;14.45;5.18;;;;;;;8.34;100.00;99543.22;5063790;28;20040;-58
2021/05/16 04:08:48;;;;;;;20.98;5.70;;;;;;;8.31;100.00;99548.88;5055010;28;20052;-58
2021/05/16 04:11:16;;;;;;;25.98;6.10;;;;;;;8.33;100.00;99545.03;5061241;28;20365;-58
2021/05/16 04:13:43;;;;;;;21.30;7.07;;;;;;;8.30;100.00;99552.56;5057984;28;20343;-58
2021/05/16 04:16:12;;;;;;;26.40;5.95;;;;;;;8.32;100.00;99555.84;5060217;28;20427;-58
2021/05/16 04:18:39;;;;;;;26.95;6.68;;;;;;;8.43;100.00;99558.94;5055296;28;20048;-58
2021/05/16 04:21:06;;;;;;;18.08;5.57;;;;;;;8.48;100.00;99555.75;5061632;28;20604;-59
2021/05/16 04:23:35;;;;;;;21.52;6.13;;;;;;;8.60;100.00;99556.97;5057587;28;20332;-59
2021/05/16 04:26:02;;;;;;;17.75;6.90;;;;;;;8.59;100.00;99554.47;5059120;28;20040;-59
2021/05/16 04:28:30;;;;;;;20.48;6.38;;;;;;;8.55;100.00;99564.66;5053463;28;20052;-59
2021/05/16 04:30:57;;;;;;;18.23;6.53;;;;;;;8.59;100.00;99554.47;5058004;28;20441;-59
2021/05/16 04:33:25;;;;;;;20.58;6.22;;;;;;;8.65;100.00;99551.09;5054766;28;20043;-59
2021/05/16 04:35:54;;;;;;;18.38;5.60;;;;;;;8.73;100.00;99555.50;5059085;28;20116;-58
2021/05/16 04:38:21;;;;;;;19.45;5.60;;;;;;;8.75;100.00;99554.31;5054410;28;20041;-59
2021/05/16 04:40:49;;;;;;;15.35;6.38;;;;;;;8.76;100.00;99548.00;5059539;28;20067;-59
2021/05/16 04:43:16;;;;;;;24.58;7.45;;;;;;;8.82;100.00;99558.91;5057267;28;20059;-59
2021/05/16 04:45:43;;;;;;;12.77;6.50;;;;;;;8.70;100.00;99555.88;5055387;28;20044;-59
2021/05/16 04:48:11;;;;;;;17.23;6.03;;;;;;;8.93;100.00;99558.44;5053711;28;20052;-58
2021/05/16 04:50:39;;;;;;;15.55;4.95;;;;;;;9.19;100.00;99560.66;5060116;28;20056;-58
2021/05/16 04:53:07;;;;;;;18.90;6.95;;;;;;;9.24;100.00;99563.63;5060929;28;20055;-59
2021/05/16 04:55:34;;;;;;;24.13;5.75;;;;;;;9.06;100.00;99566.66;5059906;28;20051;-59
2021/05/16 04:58:01;;;;;;;15.52;5.32;;;;;;;9.18;100.00;99564.34;5053740;28;20049;-58
2021/05/16 05:00:29;;;;;;;23.55;5.63;;;;;;;9.34;100.00;99565.97;5059231;28;20488;-59
2021/05/16 05:02:58;;;;;;;20.00;6.25;;;;;;;9.41;100.00;99569.56;5057189;28;20052;-58
2021/05/16 05:05:26;;;;;;;15.93;6.00;;;;;;;9.18;100.00;99569.66;5059776;28;20044;-58
2021/05/16 05:07:54;;;;;;;22.85;5.88;;;;;;;9.48;100.00;99566.97;5059922;28;20055;-59
2021/05/16 05:10:21;;;;;;;20.38;7.60;;;;;;;9.75;100.00;99575.28;5064006;28;20439;-59
2021/05/16 05:12:49;;;;;;;17.48;6.07;;;;;;;10.09;100.00;99569.28;5061258;28;20357;-59
2021/05/16 05:15:16;;;;;;;16.75;5.60;;;;;;;9.95;100.00;99571.00;5061945;28;20075;-59
2021/05/16 05:17:44;;;;;;;15.52;5.45;;;;;;;10.15;100.00;99565.84;5058962;28;20091;-59
2021/05/16 05:20:12;;;;;;;22.85;6.28;;;;;;;10.29;100.00;99572.16;5062166;28;20053;-58
2021/05/16 05:22:39;;;;;;;14.05;5.97;;;;;;;10.41;100.00;99575.16;5063860;28;20060;-59
2021/05/16 05:25:08;;;;;;;16.48;6.50;;;;;;;10.31;100.00;99575.44;5059663;28;20048;-60
2021/05/16 05:27:36;;;;;;;21.63;6.55;;;;;;;10.19;100.00;99576.97;5056733;28;20044;-59
2021/05/16 05:30:04;;;;;;;17.77;7.57;;;;;;;10.54;100.00;99571.75;5061640;28;20616;-58
2021/05/16 05:32:31;;;;;;;17.98;7.13;;;;;;;10.70;100.00;99575.97;5064465;28;20337;-59
2021/05/16 05:34:58;;;;;;;23.73;7.30;;;;;;;11.10;100.00;99578.09;5060026;28;20041;-59
2021/05/16 05:37:26;;;;;;;20.35;7.80;;;;;;;10.62;100.00;99581.47;5060176;28;20320;-59
2021/05/16 05:39:53;;;;;;;21.50;8.48;;;;;;;10.76;100.00;99577.88;5058696;28;20055;-59
2021/05/16 05:42:23;;;;;;;24.52;9.15;;;;;;;10.63;100.00;99578.63;5062656;28;20466;-59
2021/05/16 05:44:52;;;;;;;19.40;9.25;;;;;;;10.60;100.00;99572.81;5060446;28;20052;-58
2021/05/16 05:47:21;;;;;;;22.88;11.23;;;;;;;10.93;100.00;99572.22;5055878;28;20415;-59
2021/05/16 05:49:49;;;;;;;28.40;12.13;;;;;;;10.67;100.00;99582.56;5061856;28;20047;-59
2021/05/16 05:52:16;;;;;;;26.27;10.32;;;;;;;11.43;100.00;99580.13;5061340;28;20040;-58
2021/05/16 05:54:43;;;;;;;23.10;11.23;;;;;;;11.09;100.00;99576.47;5061991;28;20048;-57
2021/05/16 05:57:11;;;;;;;22.60;10.85;;;;;;;10.47;100.00;99573.56;5056037;28;20033;-57
2021/05/16 05:59:39;;;;;;;23.65;10.68;;;;;;;11.06;100.00;99576.81;5059709;28;20048;-57
2021/05/16 06:02:08;;;;;;;22.55;10.48;;;;;;;10.68;100.00;99578.84;5059625;28;20044;-58
2021/05/16 06:04:35;;;;;;;22.77;9.52;;;;;;;11.43;100.00;99577.47;5062772;28;20051;-58
2021/05/16 06:07:04;;;;;;;24.52;9.98;;;;;;;12.33;100.00;99574.63;5059072;28;20221;-58
2021/05/16 06:09:32;;;;;;;18.75;9.02;;;;;;;12.24;100.00;99576.66;5061862;28;20052;-58
2021/05/16 06:11:59;;;;;;;27.63;10.68;;;;;;;12.25;100.00;99578.31;5060001;28;20071;-58
2021/05/16 06:14:29;;;;;;;24.05;9.75;;;;;;;13.62;100.00;99584.94;5061145;28;20040;-58
2021/05/16 06:16:57;;;;;;;19.73;9.00;;;;;;;13.49;100.00;99585.81;5062674;28;20091;-59
2021/05/16 06:19:26;;;;;;;24.00;8.27;;;;;;;13.86;100.00;99580.69;5059806;28;20079;-58
2021/05/16 06:21:54;;;;;;;16.92;8.00;;;;;;;14.14;100.00;99584.88;5059519;28;20043;-58
2021/05/16 06:24:22;;;;;;;21.17;9.18;;;;;;;12.89;100.00;99582.22;5066271;28;20044;-59
2021/05/16 06:26:49;;;;;;;23.88;9.40;;;;;;;12.91;100.00;99573.97;5059127;28;20324;-58
2021/05/16 06:29:17;;;;;;;18.98;9.00;;;;;;;13.87;100.00;99579.66;5056507;28;20036;-58
2021/05/16 06:31:45;;;;;;;18.20;8.55;;;;;;;13.70;100.00;99580.16;5057948;28;20120;-58
2021/05/16 06:34:13;;;;;;;35.33;10.20;;;;;;;14.25;100.00;99568.88;5062233;28;20063;-60
2021/05/16 06:36:41;;;;;;;20.92;8.43;;;;;;;12.39;100.00;99577.31;5061310;28;20041;-60
2021/05/16 06:39:08;;;;;;;24.80;8.20;;;;;;;13.74;100.00;99569.81;5059489;28;20440;-61
2021/05/16 06:41:36;;;;;;;19.83;7.82;;;;;;;13.56;100.00;99582.06;5063079;28;20040;-59
2021/05/16 06:44:03;;;;;;;21.77;7.28;;;;;;;14.18;100.00;99586.09;5058165;28;20530;-59
2021/05/16 06:46:31;;;;;;;14.60;6.10;;;;;;;14.56;100.00;99580.63;5058128;28;20112;-59
2021/05/16 06:48:58;;;;;;;17.85;7.95;;;;;;;13.92;100.00;99585.19;5058216;28;20341;-59
2021/05/16 06:51:28;;;;;;;15.88;6.07;;;;;;;15.15;100.00;99575.78;5061282;28;20451;-59
2021/05/16 06:53:58;;;;;;;14.27;5.80;;;;;;;13.86;100.00;99583.38;5062065;28;20124;-59
2021/05/16 06:56:26;;;;;;;15.32;5.90;;;;;;;13.71;100.00;99595.22;5065041;28;20048;-59
2021/05/16 06:58:53;;;;;;;19.15;6.13;;;;;;;13.14;100.00;99591.44;5056934;28;20037;-59
2021/05/16 07:01:21;;;;;;;16.63;5.43;;;;;;;13.78;100.00;99598.69;5059001;28;20040;-59
2021/05/16 07:03:48;;;;;;;18.42;6.38;;;;;;;13.67;100.00;99596.69;5058288;28;20632;-59
2021/05/16 07:06:15;;;;;;;9.32;5.80;;;;;;;13.43;100.00;99593.66;5061621;28;20044;-59
2021/05/16 07:08:44;;;;;;;14.60;5.93;;;;;;;13.01;100.00;99595.81;5057502;28;20368;-59
2021/05/16 07:11:11;;;;;;;13.30;5.00;;;;;;;15.02;100.00;99589.34;5058663;28;20055;-59
2021/05/16 07:13:39;;;;;;;15.68;6.10;;;;;;;13.31;100.00;99589.13;5057445;28;20040;-59
2021/05/16 07:16:06;;;;;;;19.65;6.88;;;;;;;13.66;100.00;99594.22;5061877;28;20045;-59
2021/05/16 07:18:33;;;;;;;15.32;7.65;;;;;;;13.37;100.00;99593.72;5059749;28;20064;-59
2021/05/16 07:21:01;;;;;;;17.85;6.82;;;;;;;12.86;100.00;99593.34;5061637;28;20036;-59
2021/05/16 07:23:29;;;;;;;24.50;7.32;;;;;;;13.17;100.00;99582.97;5062189;28;20116;-59
2021/05/16 07:25:58;;;;;;;20.25;6.72;;;;;;;13.23;100.00;99584.84;5061045;28;20678;-58
2021/05/16 07:28:25;;;;;;;17.30;5.53;;;;;;;13.22;100.00;99583.19;5055432;28;20573;-59
2021/05/16 07:30:52;;;;;;;18.85;7.10;;;;;;;13.50;100.00;99595.50;5058950;28;20241;-59
2021/05/16 07:33:20;;;;;;;17.17;5.70;;;;;;;13.65;100.00;99590.72;5059363;28;20045;-59
2021/05/16 07:35:47;;;;;;;20.83;6.38;;;;;;;14.53;100.00;99575.72;5058203;28;20098;-59
2021/05/16 07:38:15;;;;;;;16.58;6.35;;;;;;;14.38;100.00;99578.69;5061010;28;20040;-59
2021/05/16 07:40:42;;;;;;;19.30;6.30;;;;;;;14.40;100.00;99581.16;5059835;28;20336;-59
2021/05/16 07:43:12;;;;;;;19.02;6.55;;;;;;;15.71;100.00;99575.72;5062636;28;20048;-59
2021/05/16 07:45:39;;;;;;;15.18;6.40;;;;;;;15.03;100.00;99574.84;5060008;28;20163;-59
2021/05/16 07:48:07;;;;;;;15.60;6.50;;;;;;;14.67;100.00;99576.41;5058282;28;20040;-59
2021/05/16 07:50:35;;;;;;;17.45;6.45;;;;;;;15.71;100.00;99573.03;5060357;28;20416;-59
2021/05/16 07:53:03;;;;;;;14.48;5.28;;;;;;;15.71;100.00;99574.91;5056025;28;20045;-59
2021/05/16 07:55:30;;;;;;;11.52;4.60;;;;;;;14.56;100.00;99585.16;5063127;28;20317;-59
2021/05/16 07:57:57;;;;;;;15.93;5.20;;;;;;;14.29;100.00;99585.41;5056880;28;20045;-59
2021/05/16 08:00:26;;;;;;;14.98;4.78;;;;;;;14.32;100.00;99574.22;5058433;28;20048;-59
2021/05/16 08:02:53;;;;;;;10.20;4.72;;;;;;;14.25;100.00;99570.75;5057771;28;20356;-59
2021/05/16 08:05:21;;;;;;;20.95;8.80;;;;;;;13.91;100.00;99576.31;5058382;28;20048;-59
2021/05/16 08:07:49;;;;;;;18.40;6.88;;;;;;;13.67;100.00;99577.09;5059147;28;20068;-59
2021/05/16 08:10:20;;;;;;;15.95;5.93;;;;;;;13.59;100.00;99580.81;5057321;28;20443;-59
2021/05/16 08:12:47;;;;;;;16.00;6.43;;;;;;;15.59;100.00;99577.53;5058808;28;20136;-59
2021/05/16 08:15:15;;;;;;;17.95;6.30;;;;;;;16.75;100.00;99569.19;5057061;28;20048;-59
2021/05/16 08:17:43;;;;;;;12.15;4.60;;;;;;;15.97;100.00;99560.28;5058185;28;20063;-59
2021/05/16 08:20:12;;;;;;;14.43;4.57;;;;;;;15.82;100.00;99558.84;5059240;28;20056;-59
2021/05/16 08:22:40;;;;;;;11.43;4.65;;;;;;;16.51;100.00;99557.59;5056248;28;20312;-61
2021/05/16 08:25:10;;;;;;;12.60;4.03;;;;;;;16.45;100.00;99559.34;5057399;28;20483;-59
2021/05/16 08:27:37;;;;;;;13.85;4.97;;;;;;;15.30;100.00;99551.19;5059708;28;20056;-59
2021/05/16 08:30:06;;;;;;;9.85;3.90;;;;;;;16.34;100.00;99554.75;5055618;28;20053;-60
2021/05/16 08:32:36;;;;;;;14.98;5.00;;;;;;;16.47;100.00;99559.94;5060200;28;20049;-59
2021/05/16 08:35:05;;;;;;;9.13;4.38;;;;;;;16.16;100.00;99548.41;5059243;28;20055;-59
2021/05/16 08:37:33;;;;;;;15.43;5.18;;;;;;;16.81;100.00;99553.97;5056294;28;20496;-59
2021/05/16 08:40:00;;;;;;;15.32;5.22;;;;;;;17.09;100.00;99536.28;5057388;28;20496;-59
2021/05/16 08:42:29;;;;;;;12.00;4.28;;;;;;;16.51;100.00;99546.81;5061069;28;20348;-59
2021/05/16 08:44:57;;;;;;;10.90;4.50;;;;;;;17.52;100.00;99535.81;5057820;28;20104;-59
2021/05/16 08:47:25;;;;;;;14.70;4.63;;;;;;;16.08;100.00;99532.56;5057854;28;20075;-59
2021/05/16 08:49:52;;;;;;;12.77;4.65;;;;;;;15.75;100.00;99533.84;5058170;28;20475;-59
2021/05/16 08:52:20;;;;;;;12.35;4.72;;;;;;;15.15;100.00;99539.97;5054967;28;20535;-59
2021/05/16 08:54:54;;;;;;;19.80;5.25;;;;;;;14.08;100.00;99539.06;5057219;28;20102;-58
2021/05/16 08:57:28;;;;;;;15.05;5.45;;;;;;;14.44;100.00;99540.25;5054781;28;20033;-61
2021/05/16 09:00:08;;;;;;;11.07;4.05;;;;;;;15.18;100.00;99544.09;5055110;28;20052;-61
2021/05/16 09:03:02;;;;;;;9.60;4.15;;;;;;;15.98;100.00;99538.53;5058698;28;20336;-61
2021/05/16 09:05:35;;;;;;;10.88;3.45;;;;;;;14.81;100.00;99528.75;5060717;28;20049;-59
2021/05/16 09:08:05;;;;;;;9.10;2.80;;;;;;;15.73;100.00;99535.94;5052275;28;20045;-59
2021/05/16 09:10:33;;;;;;;7.03;2.80;;;;;;;15.28;100.00;99542.53;5059976;28;20044;-59
2021/05/16 09:13:11;;;;;;;8.18;3.40;;;;;;;15.04;100.00;99535.34;5056790;28;20391;-59
2021/05/16 09:15:38;;;;;;;5.47;2.60;;;;;;;15.46;100.00;99546.22;5060665;28;20059;-59
2021/05/16 09:18:06;;;;;;;6.55;2.08;;;;;;;15.39;100.00;99543.63;5056022;28;20044;-59
2021/05/16 09:20:33;;;;;;;7.55;2.72;;;;;;;14.94;100.00;99538.53;5055838;28;20045;-59
2021/05/16 09:23:01;;;;;;;7.43;2.17;;;;;;;15.17;100.00;99535.22;5058068;28;20360;-59
2021/05/16 09:25:31;;;;;;;11.30;3.45;;;;;;;15.39;100.00;99535.56;5059219;28;20052;-59
2021/05/16 09:28:12;;;;;;;5.07;2.72;;;;;;;15.63;100.00;99532.97;5059679;28;20049;-59
2021/05/16 09:30:41;;;;;;;7.97;3.50;;;;;;;16.42;100.00;99532.88;5058481;28;20056;-59
2021/05/16 09:33:12;;;;;;;5.78;2.83;;;;;;;15.12;100.00;99521.59;5059573;28;20364;-59
2021/05/16 09:35:41;;;;;;;8.57;2.50;;;;;;;15.37;100.00;99516.13;5058265;28;20062;-58
2021/05/16 09:38:14;;;;;;;4.97;2.03;;;;;;;16.60;100.00;99523.03;5056114;28;20049;-58
2021/05/16 09:40:44;;;;;;;8.90;2.83;;;;;;;18.49;100.00;99508.06;5060710;28;20044;-59
2021/05/16 09:43:14;;;;;;;12.18;2.53;;;;;;;19.51;100.00;99513.19;5059488;28;20263;-59
2021/05/16 09:45:47;;;;;;;7.38;2.03;;;;;;;17.09;100.00;99514.69;5056502;28;20060;-58
2021/05/16 09:48:19;;;;;;;9.30;2.33;;;;;;;16.98;100.00;99510.97;5055400;28;20040;-58
2021/05/16 09:51:08;;;;;;;7.85;2.65;;;;;;;18.71;100.00;99519.75;5055893;28;20056;-59
2021/05/16 09:53:49;;;;;;;12.23;3.13;;;;;;;18.63;100.00;99505.81;5058990;28;20135;-59
2021/05/16 09:56:19;;;;;;;7.45;2.42;;;;;;;17.57;100.00;99507.28;5059580;28;20052;-58
2021/05/16 09:58:47;;;;;;;10.32;3.10;;;;;;;16.06;100.00;99502.38;5063434;28;20055;-58
2021/05/16 10:01:16;;;;;;;7.10;2.25;;;;;;;15.88;100.00;99505.13;5062142;28;20049;-58
2021/05/16 10:03:46;;;;;;;7.63;2.63;;;;;;;15.72;100.00;99503.88;5060224;28;20044;-59
2021/05/16 10:06:13;;;;;;;9.32;3.47;;;;;;;15.13;100.00;99501.75;5059940;28;20094;-60
2021/05/16 10:08:44;;;;;;;7.93;2.17;;;;;;;14.40;100.00;99498.75;5057406;28;20045;-60
2021/05/16 10:11:12;;;;;;;8.25;2.60;;;;;;;14.57;100.00;99507.06;5061713;28;20102;-60
2021/05/16 10:13:43;;;;;;;9.75;2.97;;;;;;;16.33;100.00;99499.22;5061162;28;20337;-60
2021/05/16 10:16:13;;;;;;;7.45;3.33;;;;;;;17.24;100.00;99489.91;5062624;28;20032;-60
2021/05/16 10:18:40;;;;;;;8.60;2.53;;;;;;;15.67;100.00;99489.22;5058200;28;20048;-60
2021/05/16 10:21:08;;;;;;;10.43;2.53;;;;;;;16.75;100.00;99485.63;5060955;28;20041;-60
2021/05/16 10:23:37;;;;;;;9.48;2.38;;;;;;;15.01;100.00;99482.84;5059941;28;20052;-60
2021/05/16 10:26:24;;;;;;;8.50;2.25;;;;;;;15.04;100.00;99490.47;5060295;28;20037;-60
2021/05/16 10:29:03;;;;;;;7.50;2.45;;;;;;;15.27;100.00;99473.66;5057876;28;20228;-60
2021/05/16 10:31:45;;;;;;;8.32;2.47;;;;;;;15.05;100.00;99470.59;5059009;28;20389;-61
2021/05/16 10:34:38;;;;;;;9.68;2.75;;;;;;;16.52;100.00;99468.44;5063245;28;20040;-60
2021/05/16 10:37:07;;;;;;;6.28;2.47;;;;;;;17.14;100.00;99459.00;5060774;28;20059;-60
2021/05/16 10:39:52;;;;;;;12.75;4.15;;;;;;;16.94;100.00;99454.00;5060423;28;20126;-59
2021/05/16 10:42:21;;;;;;;9.35;2.30;;;;;;;16.01;100.00;99451.09;5063356;28;20070;-59
2021/05/16 10:44:59;;;;;;;6.95;2.22;;;;;;;16.62;100.00;99457.06;5062916;28;20036;-59
2021/05/16 10:47:47;;;;;;;4.57;1.98;;;;;;;16.06;100.00;99459.28;5057027;28;20048;-59
2021/05/16 10:50:48;;;;;;;6.55;2.40;;;;;;;17.19;100.00;99444.78;5060496;28;20131;-59
2021/05/16 10:53:25;;;;;;;10.05;3.20;;;;;;;18.87;100.00;99442.38;5060351;28;20047;-59
2021/05/16 10:55:53;;;;;;;7.80;2.17;;;;;;;17.47;100.00;99443.94;5061140;28;20044;-59
2021/05/16 10:58:49;;;;;;;7.97;2.45;;;;;;;19.03;100.00;99443.38;5060283;28;20051;-60
2021/05/16 11:01:18;;;;;;;8.23;2.50;;;;;;;18.87;100.00;99434.25;5059761;28;20052;-62
2021/05/16 11:03:48;;;;;;;6.05;2.08;;;;;;;17.72;100.00;99437.38;5057411;28;20037;-59
2021/05/16 11:06:16;;;;;;;6.68;2.00;;;;;;;17.61;100.00;99430.19;5059744;28;20040;-59
2021/05/16 11:09:11;;;;;;;4.95;1.90;;;;;;;16.55;100.00;99436.69;5054976;28;20039;-59
2021/05/16 11:11:53;;;;;;;9.50;2.67;;;;;;;17.75;100.00;99431.50;5061990;28;20040;-59
2021/05/16 11:14:24;;;;;;;6.57;2.28;;;;;;;17.41;100.00;99430.59;5056483;28;20056;-59
2021/05/16 11:16:57;;;;;;;5.40;2.08;;;;;;;18.30;100.00;99429.97;5060453;28;20048;-59
2021/05/16 11:19:27;;;;;;;6.75;2.00;;;;;;;17.28;100.00;99420.94;5061249;28;20036;-59
2021/05/16 11:21:55;;;;;;;4.00;1.65;;;;;;;16.91;100.00;99421.28;5060240;28;20048;-59
2021/05/16 11:24:37;;;;;;;4.88;2.22;;;;;;;17.04;100.00;99426.44;5060660;28;20102;-59
2021/05/16 11:27:25;;;;;;;5.63;1.95;;;;;;;18.03;100.00;99405.50;5059789;28;20120;-59
2021/05/16 11:30:01;;;;;;;4.47;1.48;;;;;;;18.38;100.00;99410.59;5058784;28;20558;-59
2021/05/16 11:32:31;;;;;;;8.43;3.30;;;;;;;17.97;100.00;99396.50;5061187;28;20036;-59